Time,TemperatureF,DewpointF,PressureIn,WindDirection,WindDirectionDegrees,WindSpeedMPH,WindSpeedGustMPH,Humidity,HourlyPrecipIn,Conditions,Clouds,dailyrainin,SoftwareType,DateUTC
2013-08-03 00:00:00,81.0,62.3,29.94,SSE,158,7.0,8.0,53,0.00,,SKC,0.00,VWS V14.01,2013-08-03 07:00:00,
2013-08-03 00:05:00,81.0,62.3,29.93,South,180,2.0,3.0,53,0.00,,SKC,0.00,VWS V14.01,2013-08-03 07:05:00,
2013-08-03 00:10:00,81.0,62.3,29.93,SSW,202,4.0,5.0,53,0.00,,SKC,0.00,VWS V14.01,2013-08-03 07:10:00,
2013-08-03 00:15:00,81.0,62.8,29.93,South,180,4.0,5.0,54,0.00,,SKC,0.00,VWS V14.01,2013-08-03 07:15:00,
2013-08-03 00:20:00,81.0,62.8,29.94,SSE,158,3.0,3.0,54,0.00,,SKC,0.00,VWS V14.01,2013-08-03 07:20:00,
2013-08-03 00:25:00,81.0,63.3,29.94,ESE,112,3.0,3.0,55,0.00,,SKC,0.00,VWS V14.01,2013-08-03 07:25:00,
2013-08-03 00:30:00,81.0,64.3,29.94,SE,135,1.0,1.0,57,0.00,,SKC,0.00,VWS V14.01,2013-08-03 07:30:00,
2013-08-03 00:35:00,81.0,64.3,29.94,SE,135,0.0,0.0,57,0.00,,SKC,0.00,VWS V14.01,2013-08-03 07:35:00,
2013-08-03 00:40:00,80.0,63.9,29.94,SE,135,0.0,0.0,58,0.00,,SKC,0.00,VWS V14.01,2013-08-03 07:40:00,
2013-08-03 00:45:00,80.0,64.4,29.94,SE,135,0.0,0.0,59,0.00,,SKC,0.00,VWS V14.01,2013-08-03 07:45:00,
2013-08-03 00:50:00,80.0,64.4,29.94,SE,135,0.0,0.0,59,0.00,,SKC,0.00,VWS V14.01,2013-08-03 07:50:00,
2013-08-03 00:55:00,79.0,63.9,29.94,SE,135,0.0,0.0,60,0.00,,SKC,0.00,VWS V14.01,2013-08-03 07:55:00,
2013-08-03 01:00:00,79.0,63.9,29.94,South,180,1.0,1.0,60,0.00,,SKC,0.00,VWS V14.01,2013-08-03 08:00:00,
2013-08-03 01:05:00,79.0,63.9,29.94,South,180,0.0,0.0,60,0.00,,SKC,0.00,VWS V14.01,2013-08-03 08:05:00,
2013-08-03 01:10:00,79.0,63.9,29.94,ENE,68,1.0,2.0,60,0.00,,SKC,0.00,VWS V14.01,2013-08-03 08:10:00,
2013-08-03 01:15:00,79.0,63.9,29.93,ENE,68,4.0,4.0,60,0.00,,SKC,0.00,VWS V14.01,2013-08-03 08:15:00,
2013-08-03 01:20:00,79.0,63.9,29.93,East,90,3.0,3.0,60,0.00,,SKC,0.00,VWS V14.01,2013-08-03 08:20:00,
2013-08-03 01:25:00,79.0,63.9,29.93,ENE,68,5.0,5.0,60,0.00,,SKC,0.00,VWS V14.01,2013-08-03 08:25:00,
2013-08-03 01:30:00,79.0,63.9,29.93,East,90,4.0,5.0,60,0.00,,SKC,0.00,VWS V14.01,2013-08-03 08:30:00,
2013-08-03 01:35:00,79.0,63.9,29.93,SE,135,2.0,3.0,60,0.00,,SKC,0.00,VWS V14.01,2013-08-03 08:35:00,
2013-08-03 01:40:00,79.0,63.9,29.93,NE,45,0.0,1.0,60,0.00,,SKC,0.00,VWS V14.01,2013-08-03 08:40:00,
2013-08-03 01:45:00,78.0,63.0,29.93,NE,45,3.0,3.0,60,0.00,,SKC,0.00,VWS V14.01,2013-08-03 08:45:00,
2013-08-03 01:50:00,78.0,63.0,29.92,ENE,68,0.0,1.0,60,0.00,,SKC,0.00,VWS V14.01,2013-08-03 08:50:00,
2013-08-03 01:55:00,78.0,63.5,29.92,ENE,68,0.0,0.0,61,0.00,,SKC,0.00,VWS V14.01,2013-08-03 08:55:00,
2013-08-03 02:00:00,78.0,63.5,29.92,ENE,68,0.0,0.0,61,0.00,,SKC,0.00,VWS V14.01,2013-08-03 09:00:00,
2013-08-03 02:05:00,78.0,63.5,29.92,ENE,68,0.0,0.0,61,0.00,,SKC,0.00,VWS V14.01,2013-08-03 09:05:00,
2013-08-03 02:10:00,78.0,63.5,29.92,ENE,68,0.0,0.0,61,0.00,,SKC,0.00,VWS V14.01,2013-08-03 09:10:00,
2013-08-03 02:15:00,77.0,63.0,29.93,ENE,68,0.0,0.0,62,0.00,,SKC,0.00,VWS V14.01,2013-08-03 09:15:00,
2013-08-03 02:20:00,77.0,63.0,29.93,ENE,68,0.0,0.0,62,0.00,,SKC,0.00,VWS V14.01,2013-08-03 09:20:00,
2013-08-03 02:25:00,77.0,63.5,29.93,ENE,68,0.0,0.0,63,0.00,,SKC,0.00,VWS V14.01,2013-08-03 09:25:00,
2013-08-03 02:30:00,77.0,63.0,29.93,ENE,68,0.0,0.0,62,0.00,,SKC,0.00,VWS V14.01,2013-08-03 09:30:00,
2013-08-03 02:35:00,77.0,63.0,29.93,North,0,0.0,0.0,62,0.00,,SKC,0.00,VWS V14.01,2013-08-03 09:35:00,
2013-08-03 02:40:00,77.0,62.5,29.93,WNW,292,0.0,0.0,61,0.00,,SKC,0.00,VWS V14.01,2013-08-03 09:40:00,
2013-08-03 02:45:00,77.0,62.1,29.93,West,270,1.0,2.0,60,0.00,,SKC,0.00,VWS V14.01,2013-08-03 09:45:00,
2013-08-03 02:50:00,77.0,61.1,29.93,South,180,5.0,5.0,58,0.00,,SKC,0.00,VWS V14.01,2013-08-03 09:50:00,
2013-08-03 02:55:00,78.0,60.5,29.93,SW,225,1.0,1.0,55,0.00,,SKC,0.00,VWS V14.01,2013-08-03 09:55:00,
2013-08-03 03:00:00,78.0,60.0,29.93,SE,135,0.0,1.0,54,0.00,,SKC,0.00,VWS V14.01,2013-08-03 10:00:00,
2013-08-03 03:05:00,79.0,60.4,29.93,East,90,0.0,0.0,53,0.00,,SKC,0.00,VWS V14.01,2013-08-03 10:05:00,
2013-08-03 03:10:00,78.0,60.5,29.93,East,90,2.0,2.0,55,0.00,,SKC,0.00,VWS V14.01,2013-08-03 10:10:00,
2013-08-03 03:15:00,78.0,61.5,29.93,East,90,0.0,0.0,57,0.00,,SKC,0.00,VWS V14.01,2013-08-03 10:15:00,
2013-08-03 03:20:00,78.0,62.5,29.93,ENE,68,0.0,0.0,59,0.00,,SKC,0.00,VWS V14.01,2013-08-03 10:20:00,
2013-08-03 03:25:00,77.0,62.5,29.93,ENE,68,0.0,0.0,61,0.00,,SKC,0.00,VWS V14.01,2013-08-03 10:25:00,
2013-08-03 03:30:00,76.0,61.6,29.92,North,0,0.0,1.0,61,0.00,,SKC,0.00,VWS V14.01,2013-08-03 10:30:00,
2013-08-03 03:35:00,76.0,62.5,29.92,NE,45,0.0,0.0,63,0.00,,SKC,0.00,VWS V14.01,2013-08-03 10:35:00,
2013-08-03 03:40:00,76.0,63.0,29.92,NNE,22,0.0,0.0,64,0.00,,SKC,0.00,VWS V14.01,2013-08-03 10:40:00,
2013-08-03 03:45:00,75.0,62.0,29.92,NNE,22,0.0,0.0,64,0.00,,SKC,0.00,VWS V14.01,2013-08-03 10:45:00,
2013-08-03 03:50:00,75.0,62.5,29.93,NNE,22,0.0,0.0,65,0.00,,SKC,0.00,VWS V14.01,2013-08-03 10:50:00,
2013-08-03 03:55:00,75.0,62.9,29.92,NNE,22,1.0,1.0,66,0.00,,SKC,0.00,VWS V14.01,2013-08-03 10:55:00,
2013-08-03 04:00:00,74.0,62.4,29.93,NNE,22,0.0,0.0,67,0.00,,SKC,0.00,VWS V14.01,2013-08-03 11:00:00,
2013-08-03 04:05:00,74.0,62.4,29.93,NNE,22,0.0,0.0,67,0.00,,SKC,0.00,VWS V14.01,2013-08-03 11:05:00,
2013-08-03 04:10:00,74.0,62.4,29.93,NNE,22,0.0,0.0,67,0.00,,SKC,0.00,VWS V14.01,2013-08-03 11:10:00,
2013-08-03 04:15:00,74.0,63.2,29.92,NNE,22,0.0,0.0,69,0.00,,SKC,0.00,VWS V14.01,2013-08-03 11:15:00,
2013-08-03 04:20:00,74.0,63.2,29.92,NNE,22,0.0,0.0,69,0.00,,SKC,0.00,VWS V14.01,2013-08-03 11:20:00,
2013-08-03 04:25:00,74.0,63.2,29.93,NNE,22,0.0,0.0,69,0.00,,SKC,0.00,VWS V14.01,2013-08-03 11:25:00,
2013-08-03 04:30:00,74.0,63.6,29.93,North,0,0.0,0.0,70,0.00,,SKC,0.00,VWS V14.01,2013-08-03 11:30:00,
2013-08-03 04:35:00,74.0,63.6,29.93,NE,45,1.0,1.0,70,0.00,,SKC,0.00,VWS V14.01,2013-08-03 11:35:00,
2013-08-03 04:40:00,74.0,63.2,29.93,NE,45,2.0,3.0,69,0.00,,SKC,0.00,VWS V14.01,2013-08-03 11:40:00,
2013-08-03 04:45:00,74.0,63.2,29.93,North,0,4.0,4.0,69,0.00,,SKC,0.00,VWS V14.01,2013-08-03 11:45:00,
2013-08-03 04:51:00,74.0,63.6,29.93,North,0,5.0,5.0,70,0.00,,SKC,0.00,VWS V14.01,2013-08-03 11:51:00,
2013-08-03 04:56:00,73.0,62.7,29.93,NE,45,0.0,1.0,70,0.00,,SKC,0.00,VWS V14.01,2013-08-03 11:56:00,
2013-08-03 05:01:00,73.0,62.7,29.94,ENE,68,0.0,0.0,70,0.00,,SKC,0.00,VWS V14.01,2013-08-03 12:01:00,
2013-08-03 05:06:00,73.0,62.7,29.94,South,180,3.0,3.0,70,0.00,,SKC,0.00,VWS V14.01,2013-08-03 12:06:00,
2013-08-03 05:12:00,73.0,63.0,29.94,South,180,0.0,0.0,71,0.00,,SKC,0.00,VWS V14.01,2013-08-03 12:12:00,
2013-08-03 05:17:00,73.0,63.0,29.94,South,180,0.0,0.0,71,0.00,,SKC,0.00,VWS V14.01,2013-08-03 12:17:00,
2013-08-03 05:22:00,72.0,62.5,29.94,South,180,0.0,0.0,72,0.00,,SKC,0.00,VWS V14.01,2013-08-03 12:22:00,
2013-08-03 05:27:00,72.0,62.5,29.94,South,180,0.0,0.0,72,0.00,,SKC,0.00,VWS V14.01,2013-08-03 12:27:00,
2013-08-03 05:32:00,72.0,62.9,29.95,South,180,0.0,0.0,73,0.00,,SKC,0.00,VWS V14.01,2013-08-03 12:32:00,
2013-08-03 05:37:00,72.0,62.5,29.95,South,180,0.0,0.0,72,0.00,,SKC,0.00,VWS V14.01,2013-08-03 12:37:00,
2013-08-03 05:43:00,73.0,63.0,29.95,SSE,158,0.0,0.0,71,0.00,,SKC,0.00,VWS V14.01,2013-08-03 12:43:00,
2013-08-03 05:48:00,73.0,62.7,29.95,North,0,0.0,1.0,70,0.00,,SKC,0.00,VWS V14.01,2013-08-03 12:48:00,
2013-08-03 05:53:00,73.0,62.2,29.95,North,0,0.0,1.0,69,0.00,,SKC,0.00,VWS V14.01,2013-08-03 12:53:00,
2013-08-03 05:58:00,73.0,62.2,29.95,North,0,1.0,1.0,69,0.00,,SKC,0.00,VWS V14.01,2013-08-03 12:58:00,
2013-08-03 06:03:00,74.0,62.8,29.95,NNE,22,2.0,3.0,68,0.00,,SKC,0.00,VWS V14.01,2013-08-03 13:03:00,
2013-08-03 06:08:00,74.0,62.8,29.95,North,0,0.0,0.0,68,0.00,,SKC,0.00,VWS V14.01,2013-08-03 13:08:00,
2013-08-03 06:13:00,74.0,62.4,29.95,North,0,0.0,0.0,67,0.00,,SKC,0.00,VWS V14.01,2013-08-03 13:13:00,
2013-08-03 06:18:00,74.0,62.4,29.95,North,0,0.0,0.0,67,0.00,,SKC,0.00,VWS V14.01,2013-08-03 13:18:00,
2013-08-03 06:23:00,75.0,62.9,29.95,ENE,68,0.0,0.0,66,0.00,,SKC,0.00,VWS V14.01,2013-08-03 13:23:00,
2013-08-03 06:28:00,75.0,62.9,29.96,ENE,68,0.0,0.0,66,0.00,,SKC,0.00,VWS V14.01,2013-08-03 13:28:00,
2013-08-03 06:33:00,75.0,62.5,29.96,NE,45,0.0,0.0,65,0.00,,SKC,0.00,VWS V14.01,2013-08-03 13:33:00,
2013-08-03 06:38:00,75.0,62.5,29.96,NE,45,0.0,0.0,65,0.00,,SKC,0.00,VWS V14.01,2013-08-03 13:38:00,
2013-08-03 06:43:00,75.0,62.9,29.96,ENE,68,0.0,0.0,66,0.00,,SKC,0.00,VWS V14.01,2013-08-03 13:43:00,
2013-08-03 06:48:00,75.0,62.9,29.96,ENE,68,0.0,0.0,66,0.00,,SKC,0.00,VWS V14.01,2013-08-03 13:48:00,
2013-08-03 06:53:00,76.0,63.4,29.97,ESE,112,0.0,0.0,65,0.00,,SKC,0.00,VWS V14.01,2013-08-03 13:53:00,
2013-08-03 06:58:00,76.0,63.8,29.97,ESE,112,0.0,0.0,66,0.00,,SKC,0.00,VWS V14.01,2013-08-03 13:58:00,
2013-08-03 07:03:00,76.0,63.8,29.97,ESE,112,0.0,0.0,66,0.00,,SKC,0.00,VWS V14.01,2013-08-03 14:03:00,
2013-08-03 07:08:00,76.0,63.4,29.97,ESE,112,0.0,0.0,65,0.00,,SKC,0.00,VWS V14.01,2013-08-03 14:08:00,
2013-08-03 07:13:00,77.0,63.5,29.97,SSE,158,0.0,0.0,63,0.00,,SKC,0.00,VWS V14.01,2013-08-03 14:13:00,
2013-08-03 07:18:00,77.0,63.0,29.97,SSE,158,1.0,2.0,62,0.00,,SKC,0.00,VWS V14.01,2013-08-03 14:18:00,
2013-08-03 07:23:00,78.0,63.9,29.98,SSE,158,0.0,0.0,62,0.00,,SKC,0.00,VWS V14.01,2013-08-03 14:23:00,
2013-08-03 07:28:00,78.0,63.5,29.98,SSE,158,0.0,0.0,61,0.00,,SKC,0.00,VWS V14.01,2013-08-03 14:28:00,
2013-08-03 07:33:00,78.0,63.5,29.98,SSE,158,0.0,1.0,61,0.00,,SKC,0.00,VWS V14.01,2013-08-03 14:33:00,
2013-08-03 07:38:00,78.0,62.5,29.98,SE,135,0.0,0.0,59,0.00,,SKC,0.00,VWS V14.01,2013-08-03 14:38:00,
2013-08-03 07:43:00,79.0,63.0,29.98,SE,135,0.0,0.0,58,0.00,,SKC,0.00,VWS V14.01,2013-08-03 14:43:00,
2013-08-03 07:48:00,79.0,63.0,29.98,SE,135,0.0,0.0,58,0.00,,SKC,0.00,VWS V14.01,2013-08-03 14:48:00,
2013-08-03 07:53:00,79.0,62.5,29.98,SE,135,0.0,0.0,57,0.00,,SKC,0.00,VWS V14.01,2013-08-03 14:53:00,
2013-08-03 07:58:00,80.0,62.9,29.98,SSE,158,0.0,1.0,56,0.00,,SKC,0.00,VWS V14.01,2013-08-03 14:58:00,
2013-08-03 08:03:00,80.0,62.4,29.99,SSE,158,2.0,3.0,55,0.00,,SKC,0.00,VWS V14.01,2013-08-03 15:03:00,
2013-08-03 08:08:00,81.0,62.8,29.98,SSE,158,0.0,1.0,54,0.00,,SKC,0.00,VWS V14.01,2013-08-03 15:08:00,
2013-08-03 08:13:00,81.0,62.3,29.98,SSE,158,1.0,1.0,53,0.00,,SKC,0.00,VWS V14.01,2013-08-03 15:13:00,
2013-08-03 08:18:00,81.0,61.7,29.99,South,180,0.0,0.0,52,0.00,,SKC,0.00,VWS V14.01,2013-08-03 15:18:00,
2013-08-03 08:23:00,82.0,62.7,29.99,SW,225,0.0,0.0,52,0.00,,SKC,0.00,VWS V14.01,2013-08-03 15:23:00,
2013-08-03 08:28:00,82.0,62.7,29.99,ESE,112,4.0,4.0,52,0.00,,SKC,0.00,VWS V14.01,2013-08-03 15:28:00,
2013-08-03 08:33:00,82.0,61.5,29.99,South,180,2.0,3.0,50,0.00,,SKC,0.00,VWS V14.01,2013-08-03 15:33:00,
2013-08-03 08:38:00,83.0,62.5,29.99,SSW,202,2.0,3.0,50,0.00,,SKC,0.00,VWS V14.01,2013-08-03 15:38:00,
2013-08-03 08:43:00,83.0,61.9,29.99,SSW,202,3.0,3.0,49,0.00,,SKC,0.00,VWS V14.01,2013-08-03 15:43:00,
2013-08-03 08:48:00,84.0,62.2,29.99,SSE,158,3.0,3.0,48,0.00,,SKC,0.00,VWS V14.01,2013-08-03 15:48:00,
2013-08-03 08:53:00,85.0,62.5,29.99,South,180,2.0,3.0,47,0.00,,SKC,0.00,VWS V14.01,2013-08-03 15:53:00,
2013-08-03 08:58:00,85.0,61.9,29.99,SSE,158,3.0,4.0,46,0.00,,SKC,0.00,VWS V14.01,2013-08-03 15:58:00,
2013-08-03 09:03:00,85.0,62.5,29.98,SSE,158,2.0,4.0,47,0.00,,SKC,0.00,VWS V14.01,2013-08-03 16:03:00,
2013-08-03 09:08:00,86.0,62.2,29.98,SSW,202,4.0,5.0,45,0.00,,SKC,0.00,VWS V14.01,2013-08-03 16:08:00,
2013-08-03 09:13:00,86.0,62.2,29.98,SE,135,3.0,3.0,45,0.00,,SKC,0.00,VWS V14.01,2013-08-03 16:13:00,
2013-08-03 09:18:00,86.0,61.6,29.98,South,180,0.0,1.0,44,0.00,,SKC,0.00,VWS V14.01,2013-08-03 16:18:00,
2013-08-03 09:23:00,87.0,61.8,29.98,SSE,158,1.0,2.0,43,0.00,,SKC,0.00,VWS V14.01,2013-08-03 16:23:00,
2013-08-03 09:28:00,87.0,61.8,29.98,SSE,158,1.0,1.0,43,0.00,,SKC,0.00,VWS V14.01,2013-08-03 16:28:00,
2013-08-03 09:33:00,88.0,62.0,29.98,SSE,158,5.0,5.0,42,0.00,,SKC,0.00,VWS V14.01,2013-08-03 16:33:00,
2013-08-03 09:38:00,89.0,62.3,29.98,SSE,158,2.0,3.0,41,0.00,,SKC,0.00,VWS V14.01,2013-08-03 16:38:00,
2013-08-03 09:43:00,89.0,61.6,29.98,ESE,112,3.0,4.0,40,0.00,,SKC,0.00,VWS V14.01,2013-08-03 16:43:00,
2013-08-03 09:48:00,90.0,61.7,29.98,SSE,158,3.0,3.0,39,0.00,,SKC,0.00,VWS V14.01,2013-08-03 16:48:00,
2013-08-03 09:53:00,89.0,60.8,29.98,SSE,158,0.0,0.0,39,0.00,,SKC,0.00,VWS V14.01,2013-08-03 16:53:00,
2013-08-03 09:58:00,90.0,61.7,29.98,ESE,112,2.0,3.0,39,0.00,,SKC,0.00,VWS V14.01,2013-08-03 16:58:00,
2013-08-03 10:03:00,90.0,61.0,29.98,SW,225,4.0,5.0,38,0.00,,SKC,0.00,VWS V14.01,2013-08-03 17:03:00,
2013-08-03 10:08:00,90.0,60.3,29.98,SSW,202,3.0,3.0,37,0.00,,SKC,0.00,VWS V14.01,2013-08-03 17:08:00,
2013-08-03 10:13:00,91.0,59.6,29.98,South,180,0.0,0.0,35,0.00,,SKC,0.00,VWS V14.01,2013-08-03 17:13:00,
2013-08-03 10:18:00,92.0,59.6,29.98,SE,135,5.0,5.0,34,0.00,,SKC,0.00,VWS V14.01,2013-08-03 17:18:00,
2013-08-03 10:23:00,93.0,59.7,29.98,South,180,2.0,3.0,33,0.00,,SKC,0.00,VWS V14.01,2013-08-03 17:23:00,
2013-08-03 10:28:00,92.0,57.9,29.98,SSW,202,3.0,5.0,32,0.00,,SKC,0.00,VWS V14.01,2013-08-03 17:28:00,
2013-08-03 10:33:00,92.0,58.8,29.98,SSW,202,3.0,3.0,33,0.00,,SKC,0.00,VWS V14.01,2013-08-03 17:33:00,
2013-08-03 10:38:00,93.0,58.8,29.98,West,270,6.0,7.0,32,0.00,,SKC,0.00,VWS V14.01,2013-08-03 17:38:00,
2013-08-03 10:43:00,93.0,59.7,29.98,SW,225,3.0,3.0,33,0.00,,SKC,0.00,VWS V14.01,2013-08-03 17:43:00,
2013-08-03 10:48:00,92.0,58.8,29.98,WSW,248,5.0,6.0,33,0.00,,SKC,0.00,VWS V14.01,2013-08-03 17:48:00,
2013-08-03 10:53:00,93.0,59.7,29.98,SSW,202,3.0,5.0,33,0.00,,SKC,0.00,VWS V14.01,2013-08-03 17:53:00,
2013-08-03 10:58:00,93.0,58.8,29.98,West,270,1.0,2.0,32,0.00,,SKC,0.00,VWS V14.01,2013-08-03 17:58:00,
2013-08-03 11:03:00,95.0,59.7,29.98,ESE,112,5.0,5.0,31,0.00,,SKC,0.00,VWS V14.01,2013-08-03 18:03:00,
2013-08-03 11:08:00,95.0,58.7,29.98,SW,225,3.0,4.0,30,0.00,,SKC,0.00,VWS V14.01,2013-08-03 18:08:00,
2013-08-03 11:13:00,95.0,58.7,29.97,SSW,202,3.0,5.0,30,0.00,,SKC,0.00,VWS V14.01,2013-08-03 18:13:00,
2013-08-03 11:18:00,97.0,60.5,29.97,SSE,158,5.0,5.0,30,0.00,,SKC,0.00,VWS V14.01,2013-08-03 18:18:00,
2013-08-03 11:23:00,95.0,58.7,29.97,WSW,248,2.0,3.0,30,0.00,,SKC,0.00,VWS V14.01,2013-08-03 18:23:00,
2013-08-03 11:28:00,97.0,59.5,29.97,SSE,158,3.0,4.0,29,0.00,,SKC,0.00,VWS V14.01,2013-08-03 18:28:00,
2013-08-03 11:33:00,97.0,59.5,29.97,NW,315,0.0,1.0,29,0.00,,SKC,0.00,VWS V14.01,2013-08-03 18:33:00,
2013-08-03 11:38:00,96.0,58.7,29.97,WNW,292,10.0,10.0,29,0.00,,SKC,0.00,VWS V14.01,2013-08-03 18:38:00,
2013-08-03 11:43:00,95.0,58.7,29.96,WNW,292,8.0,9.0,30,0.00,,SKC,0.00,VWS V14.01,2013-08-03 18:43:00,
2013-08-03 11:46:00,94.0,58.8,29.96,NW,315,9.0,9.0,31,0.00,,SKC,0.00,VWS V14.01,2013-08-03 18:46:00,
2013-08-03 11:51:00,94.0,58.8,29.96,WSW,248,4.0,4.0,31,0.00,,SKC,0.00,VWS V14.01,2013-08-03 18:51:00,
2013-08-03 11:56:00,95.0,58.7,29.96,NW,315,6.0,6.0,30,0.00,,SKC,0.00,VWS V14.01,2013-08-03 18:56:00,
2013-08-03 12:01:00,95.0,58.7,29.96,WSW,248,3.0,4.0,30,0.00,,SKC,0.00,VWS V14.01,2013-08-03 19:01:00,
2013-08-03 12:06:00,96.0,59.6,29.96,SW,225,1.0,1.0,30,0.00,,SKC,0.00,VWS V14.01,2013-08-03 19:06:00,
2013-08-03 12:11:00,97.0,59.5,29.96,WSW,248,5.0,6.0,29,0.00,,SKC,0.00,VWS V14.01,2013-08-03 19:11:00,
2013-08-03 12:16:00,99.0,60.2,29.96,West,270,3.0,5.0,28,0.00,,SKC,0.00,VWS V14.01,2013-08-03 19:16:00,
2013-08-03 12:21:00,97.0,58.5,29.96,West,270,5.0,8.0,28,0.00,,SKC,0.00,VWS V14.01,2013-08-03 19:21:00,
2013-08-03 12:26:00,97.0,59.5,29.95,NW,315,5.0,5.0,29,0.00,,SKC,0.00,VWS V14.01,2013-08-03 19:26:00,
2013-08-03 12:31:00,97.0,58.5,29.95,NNW,338,3.0,4.0,28,0.00,,SKC,0.00,VWS V14.01,2013-08-03 19:31:00,
2013-08-03 12:36:00,96.0,58.7,29.96,WNW,292,5.0,5.0,29,0.00,,SKC,0.00,VWS V14.01,2013-08-03 19:36:00,
2013-08-03 12:42:00,96.0,57.7,29.95,West,270,6.0,7.0,28,0.00,,SKC,0.00,VWS V14.01,2013-08-03 19:42:00,
2013-08-03 12:47:00,96.0,57.7,29.95,SSW,202,3.0,5.0,28,0.00,,SKC,0.00,VWS V14.01,2013-08-03 19:47:00,
2013-08-03 12:52:00,97.0,58.5,29.95,SW,225,6.0,6.0,28,0.00,,SKC,0.00,VWS V14.01,2013-08-03 19:52:00,
2013-08-03 12:58:00,98.0,58.3,29.95,SSW,202,3.0,3.0,27,0.00,,SKC,0.00,VWS V14.01,2013-08-03 19:58:00,
2013-08-03 13:03:00,99.0,59.2,29.95,WSW,248,3.0,3.0,27,0.00,,SKC,0.00,VWS V14.01,2013-08-03 20:03:00,
2013-08-03 13:08:00,99.0,59.2,29.95,SSE,158,3.0,5.0,27,0.00,,SKC,0.00,VWS V14.01,2013-08-03 20:08:00,
2013-08-03 13:13:00,99.0,58.2,29.94,WSW,248,3.0,6.0,26,0.00,,SKC,0.00,VWS V14.01,2013-08-03 20:13:00,
2013-08-03 13:18:00,97.0,56.5,29.94,WNW,292,4.0,5.0,26,0.00,,SKC,0.00,VWS V14.01,2013-08-03 20:18:00,
2013-08-03 13:23:00,99.0,58.2,29.94,North,0,2.0,3.0,26,0.00,,SKC,0.00,VWS V14.01,2013-08-03 20:23:00,
2013-08-03 13:28:00,99.0,58.2,29.94,SSE,158,3.0,3.0,26,0.00,,SKC,0.00,VWS V14.01,2013-08-03 20:28:00,
2013-08-03 13:33:00,98.0,57.3,29.94,WNW,292,8.0,9.0,26,0.00,,SKC,0.00,VWS V14.01,2013-08-03 20:33:00,
2013-08-03 13:38:00,98.0,57.3,29.94,WNW,292,8.0,10.0,26,0.00,,SKC,0.00,VWS V14.01,2013-08-03 20:38:00,
2013-08-03 13:43:00,97.0,57.5,29.93,West,270,3.0,5.0,27,0.00,,SKC,0.00,VWS V14.01,2013-08-03 20:43:00,
2013-08-03 13:48:00,98.0,57.3,29.93,North,0,4.0,4.0,26,0.00,,SKC,0.00,VWS V14.01,2013-08-03 20:48:00,
2013-08-03 13:53:00,99.0,57.1,29.93,WSW,248,8.0,8.0,25,0.00,,SKC,0.00,VWS V14.01,2013-08-03 20:53:00,
2013-08-03 13:58:00,98.0,56.2,29.93,WNW,292,3.0,3.0,25,0.00,,SKC,0.00,VWS V14.01,2013-08-03 20:58:00,
2013-08-03 14:03:00,99.0,57.1,29.93,SSW,202,3.0,3.0,25,0.00,,SKC,0.00,VWS V14.01,2013-08-03 21:03:00,
2013-08-03 14:08:00,101.0,57.6,29.92,ESE,112,4.0,5.0,24,0.00,,SKC,0.00,VWS V14.01,2013-08-03 21:08:00,
2013-08-03 14:13:00,102.0,57.2,29.92,WSW,248,6.0,7.0,23,0.00,,SKC,0.00,VWS V14.01,2013-08-03 21:13:00,
2013-08-03 14:18:00,101.0,56.4,29.93,WSW,248,3.0,4.0,23,0.00,,SKC,0.00,VWS V14.01,2013-08-03 21:18:00,
2013-08-03 14:23:00,102.0,57.2,29.92,SSE,158,3.0,6.0,23,0.00,,SKC,0.00,VWS V14.01,2013-08-03 21:23:00,
2013-08-03 14:28:00,102.0,56.0,29.92,South,180,3.0,4.0,22,0.00,,SKC,0.00,VWS V14.01,2013-08-03 21:28:00,
2013-08-03 14:33:00,101.0,56.4,29.92,SW,225,3.0,3.0,23,0.00,,SKC,0.00,VWS V14.01,2013-08-03 21:33:00,
2013-08-03 14:39:00,102.0,56.0,29.91,SE,135,2.0,3.0,22,0.00,,SKC,0.00,VWS V14.01,2013-08-03 21:39:00,
2013-08-03 14:44:00,102.0,56.0,29.91,SSE,158,4.0,5.0,22,0.00,,SKC,0.00,VWS V14.01,2013-08-03 21:44:00,
2013-08-03 14:49:00,102.0,57.2,29.91,SSE,158,1.0,3.0,23,0.00,,SKC,0.00,VWS V14.01,2013-08-03 21:49:00,
2013-08-03 14:54:00,102.0,56.0,29.91,SSE,158,5.0,5.0,22,0.00,,SKC,0.00,VWS V14.01,2013-08-03 21:54:00,
2013-08-03 14:59:00,101.0,55.2,29.91,WSW,248,6.0,6.0,22,0.00,,SKC,0.00,VWS V14.01,2013-08-03 21:59:00,
2013-08-03 15:04:00,101.0,55.2,29.90,ENE,68,3.0,3.0,22,0.00,,SKC,0.00,VWS V14.01,2013-08-03 22:04:00,
2013-08-03 15:09:00,101.0,56.4,29.90,SSW,202,4.0,4.0,23,0.00,,SKC,0.00,VWS V14.01,2013-08-03 22:09:00,
2013-08-03 15:14:00,101.0,56.4,29.90,ENE,68,6.0,7.0,23,0.00,,SKC,0.00,VWS V14.01,2013-08-03 22:14:00,
2013-08-03 15:19:00,101.0,55.2,29.90,WSW,248,3.0,4.0,22,0.00,,SKC,0.00,VWS V14.01,2013-08-03 22:19:00,
2013-08-03 15:24:00,102.0,56.0,29.89,SW,225,3.0,4.0,22,0.00,,SKC,0.00,VWS V14.01,2013-08-03 22:24:00,
2013-08-03 15:29:00,102.0,54.7,29.89,SSE,158,4.0,6.0,21,0.00,,SKC,0.00,VWS V14.01,2013-08-03 22:29:00,
2013-08-03 15:34:00,100.0,55.6,29.89,WNW,292,11.0,12.0,23,0.00,,SKC,0.00,VWS V14.01,2013-08-03 22:34:00,
2013-08-03 15:39:00,99.0,55.9,29.89,WNW,292,5.0,5.0,24,0.00,,SKC,0.00,VWS V14.01,2013-08-03 22:39:00,
2013-08-03 15:44:00,98.0,55.1,29.89,WSW,248,6.0,7.0,24,0.00,,SKC,0.00,VWS V14.01,2013-08-03 22:44:00,
2013-08-03 15:49:00,98.0,55.1,29.89,WSW,248,4.0,5.0,24,0.00,,SKC,0.00,VWS V14.01,2013-08-03 22:49:00,
2013-08-03 15:55:00,98.0,55.1,29.89,West,270,1.0,2.0,24,0.00,,SKC,0.00,VWS V14.01,2013-08-03 22:55:00,
2013-08-03 16:01:00,98.0,55.1,29.89,WSW,248,5.0,5.0,24,0.00,,SKC,0.00,VWS V14.01,2013-08-03 23:01:00,
2013-08-03 16:07:00,98.0,56.2,29.89,WSW,248,7.0,7.0,25,0.00,,SKC,0.00,VWS V14.01,2013-08-03 23:07:00,
2013-08-03 16:12:00,98.0,56.2,29.89,SW,225,11.0,11.0,25,0.00,,SKC,0.00,VWS V14.01,2013-08-03 23:12:00,
2013-08-03 16:17:00,99.0,57.1,29.89,West,270,6.0,7.0,25,0.00,,SKC,0.00,VWS V14.01,2013-08-03 23:17:00,
2013-08-03 16:23:00,99.0,55.9,29.89,West,270,4.0,4.0,24,0.00,,SKC,0.00,VWS V14.01,2013-08-03 23:23:00,
2013-08-03 16:28:00,99.0,55.9,29.88,SSW,202,2.0,3.0,24,0.00,,SKC,0.00,VWS V14.01,2013-08-03 23:28:00,
2013-08-03 16:33:00,98.0,56.2,29.89,WSW,248,7.0,7.0,25,0.00,,SKC,0.00,VWS V14.01,2013-08-03 23:33:00,
2013-08-03 16:38:00,100.0,56.8,29.89,SW,225,1.0,1.0,24,0.00,,SKC,0.00,VWS V14.01,2013-08-03 23:38:00,
2013-08-03 16:43:00,100.0,56.8,29.88,ENE,68,1.0,1.0,24,0.00,,SKC,0.00,VWS V14.01,2013-08-03 23:43:00,
2013-08-03 16:47:00,100.0,56.8,29.88,West,270,9.0,9.0,24,0.00,,SKC,0.00,VWS V14.01,2013-08-03 23:47:00,
2013-08-03 16:52:00,98.0,56.2,29.89,WSW,248,3.0,3.0,25,0.00,,SKC,0.00,VWS V14.01,2013-08-03 23:52:00,
2013-08-03 16:57:00,98.0,56.2,29.89,South,180,4.0,4.0,25,0.00,,SKC,0.00,VWS V14.01,2013-08-03 23:57:00,
2013-08-03 17:02:00,98.0,56.2,29.89,WSW,248,6.0,8.0,25,0.00,,SKC,0.00,VWS V14.01,2013-08-04 00:02:00,
2013-08-03 17:07:00,98.0,56.2,29.89,West,270,7.0,8.0,25,0.00,,SKC,0.00,VWS V14.01,2013-08-04 00:07:00,
2013-08-03 17:12:00,98.0,55.1,29.89,SW,225,12.0,12.0,24,0.00,,SKC,0.00,VWS V14.01,2013-08-04 00:12:00,
2013-08-03 17:17:00,98.0,56.2,29.89,WSW,248,6.0,6.0,25,0.00,,SKC,0.00,VWS V14.01,2013-08-04 00:17:00,
2013-08-03 17:23:00,97.0,55.4,29.89,West,270,8.0,8.0,25,0.00,,SKC,0.00,VWS V14.01,2013-08-04 00:23:00,
2013-08-03 17:28:00,96.0,54.5,29.89,WNW,292,8.0,10.0,25,0.00,,SKC,0.00,VWS V14.01,2013-08-04 00:28:00,
2013-08-03 17:33:00,96.0,54.5,29.89,WSW,248,8.0,8.0,25,0.00,,SKC,0.00,VWS V14.01,2013-08-04 00:33:00,
2013-08-03 17:35:00,96.0,54.5,29.89,SW,225,10.0,10.0,25,0.00,,SKC,0.00,VWS V14.01,2013-08-04 00:35:00,
2013-08-03 17:40:00,96.0,54.5,29.89,SW,225,7.0,9.0,25,0.00,,SKC,0.00,VWS V14.01,2013-08-04 00:40:00,
2013-08-03 17:45:00,96.0,54.5,29.89,WSW,248,3.0,4.0,25,0.00,,SKC,0.00,VWS V14.01,2013-08-04 00:45:00,
2013-08-03 17:50:00,96.0,54.5,29.89,WSW,248,6.0,7.0,25,0.00,,SKC,0.00,VWS V14.01,2013-08-04 00:50:00,
2013-08-03 17:56:00,96.0,54.5,29.89,WSW,248,6.0,8.0,25,0.00,,SKC,0.00,VWS V14.01,2013-08-04 00:56:00,
2013-08-03 17:58:00,96.0,54.5,29.89,West,270,5.0,5.0,25,0.00,,SKC,0.00,VWS V14.01,2013-08-04 00:58:00,
2013-08-03 18:03:00,96.0,54.5,29.89,WSW,248,3.0,4.0,25,0.00,,SKC,0.00,VWS V14.01,2013-08-04 01:03:00,
2013-08-03 18:08:00,96.0,54.5,29.89,WNW,292,5.0,5.0,25,0.00,,SKC,0.00,VWS V14.01,2013-08-04 01:08:00,
2013-08-03 18:13:00,95.0,54.8,29.89,West,270,7.0,8.0,26,0.00,,SKC,0.00,VWS V14.01,2013-08-04 01:13:00,
2013-08-03 18:18:00,95.0,55.8,29.89,West,270,7.0,9.0,27,0.00,,SKC,0.00,VWS V14.01,2013-08-04 01:18:00,
2013-08-03 18:24:00,95.0,55.8,29.89,West,270,13.0,13.0,27,0.00,,SKC,0.00,VWS V14.01,2013-08-04 01:24:00,
2013-08-03 18:30:00,94.0,56.0,29.89,WSW,248,10.0,10.0,28,0.00,,SKC,0.00,VWS V14.01,2013-08-04 01:30:00,
2013-08-03 18:35:00,93.0,57.9,29.89,SW,225,11.0,13.0,31,0.00,,SKC,0.00,VWS V14.01,2013-08-04 01:35:00,
2013-08-03 18:40:00,93.0,58.8,29.89,WSW,248,14.0,14.0,32,0.00,,SKC,0.00,VWS V14.01,2013-08-04 01:40:00,
2013-08-03 18:45:00,92.0,58.8,29.90,WSW,248,13.0,13.0,33,0.00,,SKC,0.00,VWS V14.01,2013-08-04 01:45:00,
2013-08-03 18:50:00,92.0,59.6,29.90,SW,225,8.0,8.0,34,0.00,,SKC,0.00,VWS V14.01,2013-08-04 01:50:00,
2013-08-03 18:55:00,92.0,59.6,29.90,WSW,248,6.0,6.0,34,0.00,,SKC,0.00,VWS V14.01,2013-08-04 01:55:00,
2013-08-03 19:01:00,91.0,59.6,29.90,WSW,248,14.0,15.0,35,0.00,,SKC,0.00,VWS V14.01,2013-08-04 02:01:00,
2013-08-03 19:07:00,90.0,59.5,29.90,WSW,248,11.0,13.0,36,0.00,,SKC,0.00,VWS V14.01,2013-08-04 02:07:00,
2013-08-03 19:12:00,90.0,59.5,29.90,SW,225,10.0,12.0,36,0.00,,SKC,0.00,VWS V14.01,2013-08-04 02:12:00,
2013-08-03 19:18:00,90.0,58.7,29.90,SW,225,6.0,7.0,35,0.00,,SKC,0.00,VWS V14.01,2013-08-04 02:18:00,
2013-08-03 19:23:00,90.0,58.7,29.91,SW,225,12.0,12.0,35,0.00,,SKC,0.00,VWS V14.01,2013-08-04 02:23:00,
2013-08-03 19:28:00,89.0,57.0,29.91,WSW,248,5.0,6.0,34,0.00,,SKC,0.00,VWS V14.01,2013-08-04 02:28:00,
2013-08-03 19:33:00,89.0,56.2,29.90,West,270,9.0,11.0,33,0.00,,SKC,0.00,VWS V14.01,2013-08-04 02:33:00,
2013-08-03 19:38:00,89.0,56.2,29.90,West,270,11.0,12.0,33,0.00,,SKC,0.00,VWS V14.01,2013-08-04 02:38:00,
2013-08-03 19:43:00,89.0,55.3,29.91,SW,225,5.0,8.0,32,0.00,,SKC,0.00,VWS V14.01,2013-08-04 02:43:00,
2013-08-03 19:49:00,89.0,55.3,29.91,SW,225,3.0,3.0,32,0.00,,SKC,0.00,VWS V14.01,2013-08-04 02:49:00,
2013-08-03 19:54:00,89.0,55.3,29.91,SSE,158,2.0,3.0,32,0.00,,SKC,0.00,VWS V14.01,2013-08-04 02:54:00,
2013-08-03 19:59:00,89.0,55.3,29.91,SSE,158,2.0,3.0,32,0.00,,SKC,0.00,VWS V14.01,2013-08-04 02:59:00,
2013-08-03 20:05:00,89.0,55.3,29.92,SE,135,3.0,3.0,32,0.00,,SKC,0.00,VWS V14.01,2013-08-04 03:05:00,
2013-08-03 20:11:00,89.0,55.3,29.92,SE,135,1.0,2.0,32,0.00,,SKC,0.00,VWS V14.01,2013-08-04 03:11:00,
2013-08-03 20:16:00,88.0,54.5,29.92,SE,135,0.0,0.0,32,0.00,,SKC,0.00,VWS V14.01,2013-08-04 03:16:00,
2013-08-03 20:22:00,88.0,54.5,29.92,SSE,158,0.0,0.0,32,0.00,,SKC,0.00,VWS V14.01,2013-08-04 03:22:00,
2013-08-03 20:27:00,88.0,54.5,29.92,SW,225,0.0,0.0,32,0.00,,SKC,0.00,VWS V14.01,2013-08-04 03:27:00,
2013-08-03 20:32:00,88.0,55.3,29.92,SW,225,0.0,0.0,33,0.00,,SKC,0.00,VWS V14.01,2013-08-04 03:32:00,
2013-08-03 20:37:00,87.0,54.5,29.92,NNE,22,0.0,0.0,33,0.00,,SKC,0.00,VWS V14.01,2013-08-04 03:37:00,
2013-08-03 20:42:00,87.0,55.3,29.92,NNE,22,0.0,0.0,34,0.00,,SKC,0.00,VWS V14.01,2013-08-04 03:42:00,
2013-08-03 20:47:00,87.0,54.5,29.93,NNE,22,0.0,0.0,33,0.00,,SKC,0.00,VWS V14.01,2013-08-04 03:47:00,
2013-08-03 20:52:00,87.0,54.5,29.93,North,0,0.0,0.0,33,0.00,,SKC,0.00,VWS V14.01,2013-08-04 03:52:00,
2013-08-03 20:57:00,87.0,54.5,29.93,North,0,1.0,1.0,33,0.00,,SKC,0.00,VWS V14.01,2013-08-04 03:57:00,
2013-08-03 21:01:00,87.0,54.5,29.93,North,0,2.0,3.0,33,0.00,,SKC,0.00,VWS V14.01,2013-08-04 04:01:00,
2013-08-03 21:03:00,87.0,54.5,29.93,North,0,0.0,1.0,33,0.00,,SKC,0.00,VWS V14.01,2013-08-04 04:03:00,
2013-08-03 21:05:00,87.0,54.5,29.93,North,0,0.0,0.0,33,0.00,,SKC,0.00,VWS V14.01,2013-08-04 04:05:00,
2013-08-03 21:06:00,87.0,54.5,29.93,North,0,0.0,0.0,33,0.00,,SKC,0.00,VWS V14.01,2013-08-04 04:06:00,
2013-08-03 21:11:00,87.0,54.5,29.93,NNE,22,0.0,0.0,33,0.00,,SKC,0.00,VWS V14.01,2013-08-04 04:11:00,
2013-08-03 21:16:00,88.0,55.3,29.93,NNE,22,0.0,0.0,33,0.00,,SKC,0.00,VWS V14.01,2013-08-04 04:16:00,
2013-08-03 21:21:00,88.0,55.3,29.92,NNE,22,0.0,0.0,33,0.00,,SKC,0.00,VWS V14.01,2013-08-04 04:21:00,
2013-08-03 21:26:00,88.0,55.3,29.92,North,0,1.0,1.0,33,0.00,,SKC,0.00,VWS V14.01,2013-08-04 04:26:00,
2013-08-03 21:31:00,88.0,54.5,29.92,NNE,22,0.0,0.0,32,0.00,,SKC,0.00,VWS V14.01,2013-08-04 04:31:00,
2013-08-03 21:37:00,88.0,55.3,29.93,NNE,22,0.0,0.0,33,0.00,,SKC,0.00,VWS V14.01,2013-08-04 04:37:00,
2013-08-03 21:42:00,88.0,55.3,29.92,NNE,22,0.0,0.0,33,0.00,,SKC,0.00,VWS V14.01,2013-08-04 04:42:00,
2013-08-03 21:47:00,88.0,55.3,29.92,NNE,22,1.0,2.0,33,0.00,,SKC,0.00,VWS V14.01,2013-08-04 04:47:00,
2013-08-03 21:53:00,88.0,55.3,29.92,North,0,1.0,2.0,33,0.00,,SKC,0.00,VWS V14.01,2013-08-04 04:53:00,
2013-08-03 21:58:00,87.0,54.5,29.92,NNE,22,0.0,0.0,33,0.00,,SKC,0.00,VWS V14.01,2013-08-04 04:58:00,
2013-08-03 22:03:00,87.0,55.3,29.92,NW,315,3.0,3.0,34,0.00,,SKC,0.00,VWS V14.01,2013-08-04 05:03:00,
2013-08-03 22:08:00,87.0,55.3,29.92,NW,315,5.0,5.0,34,0.00,,SKC,0.00,VWS V14.01,2013-08-04 05:08:00,
2013-08-03 22:13:00,87.0,55.3,29.92,NW,315,3.0,3.0,34,0.00,,SKC,0.00,VWS V14.01,2013-08-04 05:13:00,
2013-08-03 22:18:00,87.0,56.1,29.92,NW,315,3.0,3.0,35,0.00,,SKC,0.00,VWS V14.01,2013-08-04 05:18:00,
2013-08-03 22:23:00,87.0,56.1,29.92,NW,315,3.0,3.0,35,0.00,,SKC,0.00,VWS V14.01,2013-08-04 05:23:00,
2013-08-03 22:28:00,87.0,55.3,29.91,NNW,338,3.0,4.0,34,0.00,,SKC,0.00,VWS V14.01,2013-08-04 05:28:00,
2013-08-03 22:34:00,86.0,55.2,29.91,WNW,292,3.0,3.0,35,0.00,,SKC,0.00,VWS V14.01,2013-08-04 05:34:00,
2013-08-03 22:40:00,86.0,56.0,29.91,WNW,292,3.0,3.0,36,0.00,,SKC,0.00,VWS V14.01,2013-08-04 05:40:00,
2013-08-03 22:45:00,86.0,56.0,29.92,SSE,158,3.0,4.0,36,0.00,,SKC,0.00,VWS V14.01,2013-08-04 05:45:00,
2013-08-03 22:51:00,86.0,56.0,29.92,SE,135,0.0,0.0,36,0.00,,SKC,0.00,VWS V14.01,2013-08-04 05:51:00,
2013-08-03 22:56:00,86.0,56.0,29.92,SE,135,0.0,0.0,36,0.00,,SKC,0.00,VWS V14.01,2013-08-04 05:56:00,
2013-08-03 23:01:00,86.0,56.0,29.92,SW,225,3.0,3.0,36,0.00,,SKC,0.00,VWS V14.01,2013-08-04 06:01:00,
2013-08-03 23:06:00,86.0,55.2,29.92,SSW,202,3.0,4.0,35,0.00,,SKC,0.00,VWS V14.01,2013-08-04 06:06:00,
2013-08-03 23:11:00,86.0,55.2,29.93,South,180,3.0,4.0,35,0.00,,SKC,0.00,VWS V14.01,2013-08-04 06:11:00,
2013-08-03 23:15:00,86.0,54.4,29.93,South,180,1.0,2.0,34,0.00,,SKC,0.00,VWS V14.01,2013-08-04 06:15:00,
2013-08-03 23:21:00,86.0,54.4,29.93,South,180,1.0,2.0,34,0.00,,SKC,0.00,VWS V14.01,2013-08-04 06:21:00,
2013-08-03 23:26:00,87.0,55.3,29.93,SSE,158,4.0,5.0,34,0.00,,SKC,0.00,VWS V14.01,2013-08-04 06:26:00,
2013-08-03 23:31:00,87.0,55.3,29.93,South,180,3.0,5.0,34,0.00,,SKC,0.00,VWS V14.01,2013-08-04 06:31:00,
2013-08-03 23:37:00,87.0,56.1,29.94,South,180,2.0,3.0,35,0.00,,SKC,0.00,VWS V14.01,2013-08-04 06:37:00,
2013-08-03 23:41:00,87.0,56.1,29.94,SSE,158,3.0,3.0,35,0.00,,SKC,0.00,VWS V14.01,2013-08-04 06:41:00,
2013-08-03 23:47:00,87.0,56.8,29.93,SSE,158,2.0,3.0,36,0.00,,SKC,0.00,VWS V14.01,2013-08-04 06:47:00,
2013-08-03 23:52:00,87.0,56.8,29.93,SE,135,1.0,1.0,36,0.00,,SKC,0.00,VWS V14.01,2013-08-04 06:52:00,
2013-08-03 23:58:00,86.0,56.7,29.93,ENE,68,3.0,3.0,37,0.00,,SKC,0.00,VWS V14.01,2013-08-04 06:58:00,